Tiempo atmosférico en la estación meteorológica de Puerto De La Cruz, Santa Cruz de Tenerife (25 m.)



Fecha
DESCASC
Temp. máxima en grados centígrados (hora)
DESCASC
Temp. mínima en grados centígrados (hora)
DESCASC
Temp. media en grados centígrados
DESCASC
Racha de viento máxima en m/sg (hora)
DESCASC
Velocidad máxima media en intervalos de 10 minutos(hora)
DESCASC
Precipitaciones diarias en mm
DESCASC
Precipitaciones de 00:00 a 06:00 en mm
DESCASC
Precipitaciones de 06:00 a 12:00 en mm
DESCASC
Precipitaciones de 12:00 a 18:00 en mm
DESCASC
Precipitaciones de 18:00 a 24:00 en mm
DESCASC
17-08-2019 27.8 (17:00) 22.8 (00:00) 25.3 7.78 (15:30) 5.83 (15:50) 0 0 0 0 0
10-08-2019 28.8 (16:30) 21.9 (00:00) 25.3 9.17 (16:10) 3.61 (14:40) 0 0 0 0 0
24-08-2019 27.5 (16:30) 22.8 (00:00) 25.1 6.67 (14:10) 5 (14:10) 0 0 0 0 0
23-08-2019 28.2 (16:00) 21.5 (00:00) 24.9 6.11 (11:40) 5 (11:40) 0 0 0 0 0
29-07-2019 27.6 (18:30) 22.2 (00:00) 24.9 7.78 (19:10) 6.11 (15:10) 0 0 0 0 0
18-08-2019 27 (14:40) 22.5 (00:00) 24.8 9.17 (16:30) 6.67 (15:20) 0 0 0 0 0
16-08-2019 27 (15:20) 22.6 (00:00) 24.8 6.67 (00:20) 5.28 (00:20) 0 0 0 0 0
09-08-2019 27.8 (15:30) 21.7 (00:00) 24.8 6.39 (14:30) 5 (14:30) 0 0 0 0 0
05-08-2019 27.8 (15:50) 21.7 (00:00) 24.8 7.5 (15:10) 6.11 (15:10) 0 0 0 0 0
28-07-2019 27.9 (13:40) 21.5 (00:00) 24.7 8.33 (16:30) 6.39 (16:40) 0 0 0 0 0
08-08-2019 28 (16:10) 21.1 (00:00) 24.6 5.56 (16:20) 4.44 (15:30) 0 0 0 0 0
04-08-2019 28.7 (16:10) 20.1 (00:00) 24.4 6.11 (14:40) 4.44 (19:00) 0 0 0 0 0
19-08-2019 27.4 (14:50) 21.5 (00:00) 24.4 8.89 (22:40) 6.67 (17:00) 0 0 0 0 0
07-08-2019 27.2 (16:20) 21.4 (00:00) 24.3 7.78 (13:20) 6.11 (13:20) 0 0 0 0 0
06-08-2019 27.8 (16:20) 20.6 (00:00) 24.2 6.11 (10:00) 4.72 (10:10) 0 0 0 0 0
21-08-2019 26.7 (16:30) 21.6 (00:00) 24.2 8.61 (15:00) 6.67 (15:00) 0 0 0 0 0
15-08-2019 27.8 (16:10) 20.2 (00:00) 24 7.22 (17:30) 5.56 (17:30) 0 0 0 0 0
22-08-2019 27 (16:50) 20.7 (00:00) 23.9 6.94 (13:40) 5.83 (14:40) 0 0 0 0 0
01-08-2019 27.9 (15:50) 20 (00:00) 23.9 7.5 (23:10) 5.56 (16:40) 0 0 0 0 0
11-08-2019 25.6 (12:20) 22.1 (00:00) 23.9 10 (16:20) 7.5 (16:20) 0 0 0 0 0
03-08-2019 27.3 (17:40) 20.6 (00:00) 23.9 5.83 (13:10) 4.72 (13:10) 0 0 0 0 0
02-08-2019 26.9 (16:10) 20.8 (00:00) 23.8 7.22 (14:10) 5.83 (14:10) 0 0 0 0 0
27-07-2019 25.7 (15:50) 21.8 (00:00) 23.8 8.06 (12:20) 6.11 (12:20) 0 0 0 0 0
12-08-2019 26.5 (17:00) 21 (00:00) 23.8 9.72 (14:50) 7.5 (15:00) 0 0 0 0 0
14-08-2019 27.2 (15:30) 20.1 (00:00) 23.7 7.22 (17:00) 5.28 (17:00) 0 0 0 0 0
13-08-2019 26.8 (15:30) 20.6 (00:00) 23.7 7.78 (13:50) 6.39 (13:50) 0 0 0 0 0
20-08-2019 26.8 (15:40) 20.6 (00:00) 23.7 9.17 (10:30) 7.22 (10:30) 0 0 0 0 0
26-07-2019 26.5 (17:10) 20.7 (00:00) 23.6 7.78 (13:10) 5.83 (13:00) 0 0 0 0 0
31-07-2019 26.2 (15:20) 20.9 (00:00) 23.6 6.94 (08:50) 5.83 (15:30) 0 0 0 0 0
30-07-2019 25.5 (14:00) 20.5 (00:00) 23 12.78 (05:50) 7.5 (05:50) 0 0 0 0 0

Gráficas

Temp. máximas Temp. mínimas Temp. medias Precipitaciones Rachas de viento máximas Velocidades máximas media en intervalos de 10 minutos

Datos horarios

Fecha y hora oficial Temperatura (ºC) Velocidad del viento (km/h) Dirección del viento Racha (km/h) Dirección de racha Precipitación (mm) Presión (hPa) Tendencia (hPa) Humedad (%)
2019-08-24 23:00:00 23.8 8 Nordeste 22 Este 0 1012.6 1.4 87
2019-08-24 22:00:00 23.9 13 Nordeste 21 Nordeste 0 1011.9 0.7 87
2019-08-24 21:00:00 24 15 Nordeste 21 Nordeste 0 1011.5 0.6 87
2019-08-24 20:00:00 24.5 13 Nordeste 18 Nordeste 0 1011.2 0.4 84
2019-08-24 19:00:00 25.3 12 Nordeste 18 Nordeste 0 1011.2 0.4 79
2019-08-24 18:00:00 27.1 10 Nordeste 17 Nordeste 0 1010.9 -0.4 73
2019-08-24 17:00:00 26.3 13 Nordeste 18 Nordeste 0 1010.8 -1.2 76
2019-08-24 16:00:00 26.5 11 Nordeste 21 Nordeste 0 1010.8 -2 76
2019-08-24 15:00:00 26.8 13 Nordeste 24 Nordeste 0 1011.3 -1.7 76
2019-08-24 14:00:00 25.1 17 Nordeste 22 Nordeste 0 1012 -0.9 81
2019-08-24 13:00:00 24.5 14 Nordeste 21 Nordeste 0 1012.8 0.4 84
2019-08-24 12:00:00 24.5 14 Nordeste 19 Nordeste 0 1013 0.8 83
2019-08-24 11:00:00 24.3 6 Nordeste 10 Nordeste 0 1012.9 0.8 80
2019-08-24 10:00:00 23.8 0 Calma 6 Oeste 0 1012.4 0.6 80
2019-08-24 09:00:00 23.5 0 Calma 9 Nordeste 0 1012.2 0.7 81
2019-08-24 08:00:00 23.2 3 Nordeste 13 Sudeste 0 1012.1 0.3 81
2019-08-24 07:00:00 23 0 Calma 10 Oeste 0 1011.8 -0.1 83
2019-08-24 06:00:00 23 0 Calma 12 Este 0 1011.5 -0.3 82
2019-08-24 05:00:00 23 4 Este 18 Nordeste 0 1011.8 -0.6 83
2019-08-24 04:00:00 23 6 Este 12 Este 0 1011.9 -0.9 84
2019-08-24 03:00:00 22.9 6 Este 11 Este 0 1011.8 -1.2 84
2019-08-24 02:00:00 23 8 Este 14 Este 0 1012.4 -0.7 85
2019-08-24 01:00:00 23.3 11 Nordeste 16 Nordeste 0 1012.8 0.6 85
2019-08-24 00:00:00 23.5 13 Nordeste 21 Nordeste 0 1013 1.3 85
2019-08-23 23:00:00 23.6 12 Nordeste 18 Nordeste 0 1013.1 1.9 84
2019-08-23 22:00:00 23.8 9 Este 16 Nordeste 0 1012.2 1 83
2019-08-23 21:00:00 24 12 Nordeste 18 Nordeste 0 1011.7 0.3 81
2019-08-23 20:00:00 24.5 12 Nordeste 18 Nordeste 0 1011.2 -0.1 77
2019-08-23 19:00:00 25.4 12 Nordeste 18 Nordeste 0 1011.2 -0.1 73
2019-08-23 18:00:00 25.7 15 Nordeste 20 Nordeste 0 1011.4 -0.1 70
2019-08-23 17:00:00 26.8 15 Nordeste 19 Nordeste 0 1011.3 -0.7 66
2019-08-23 16:00:00 28 13 Nordeste 19 Nordeste 0 1011.3 -1 61
2019-08-23 15:00:00 26.9 14 Nordeste 18 Nordeste 0 1011.5 -0.9 65
2019-08-23 14:00:00 26.7 13 Nordeste 19 Nordeste 0 1012 -0.1 65
2019-08-23 13:00:00 26.1 15 Nordeste 20 Nordeste 0 1012.3 0.4 67
2019-08-23 12:00:00 25.8 17 Nordeste 22 Nordeste 0 1012.4 -0.1 69
2019-08-23 11:00:00 25.2 14 Nordeste 18 Nordeste 0 1012.1 -0.2 70
2019-08-23 10:00:00 24.8 7 Este 11 Este 0 1011.9 0.2 70
2019-08-23 09:00:00 23 3 Sudeste 10 Sur 0 1012.5 0.9 74
2019-08-23 08:00:00 21.8 5 Sudeste 10 Sudeste 0 1012.3 0.7 77
2019-08-23 07:00:00 21.8 4 Sudeste 10 Sudeste 0 1011.7 0.1 77
2019-08-23 06:00:00 21.9 4 Sudeste 9 Sudeste 0 1011.6 -0.2 77
2019-08-23 05:00:00 21.8 5 Sur 10 Sudeste 0 1011.6 -0.3 77
2019-08-23 04:00:00 21.9 4 Sudeste 10 Sudeste 0 1011.6 -0.6 76
2019-08-23 03:00:00 21.9 4 Sudeste 8 Sudeste 0 1011.8 -0.7 76
2019-08-23 02:00:00 21.6 5 Sur 10 Sudeste 0 1011.9 -0.7 76
2019-08-23 01:00:00 22.4 5 Este 12 Sudeste 0 1012.2 0.1 76
2019-08-23 00:00:00 22.7 8 Este 20 Nordeste 0 1012.5 0.7 77
2019-08-22 23:00:00 22.9 13 Nordeste 19 Nordeste 0 1012.6 1.4 77
2019-08-22 22:00:00 23.2 15 Nordeste 20 Nordeste 0 1012.1 1.1 75
2019-08-22 21:00:00 23.6 12 Nordeste 19 Nordeste 0 1011.8 1.2 74
2019-08-22 20:00:00 24.2 14 Nordeste 19 Nordeste 0 1011.2 0.5 71
2019-08-22 19:00:00 25 15 Nordeste 23 Nordeste 0 1011 0 67
2019-08-22 18:00:00 26 18 Nordeste 24 Nordeste 0 1010.6 -0.9 64
2019-08-22 17:00:00 26.8 17 Nordeste 23 Nordeste 0 1010.7 -1 62
2019-08-22 16:00:00 26.7 18 Nordeste 25 Nordeste 0 1011 -1.1 62
2019-08-22 15:00:00 26.6 20 Nordeste 25 Nordeste 0 1011.5 -0.9 62
2019-08-22 14:00:00 26.6 19 Nordeste 25 Nordeste 0 1011.7 -1.1 63
2019-08-22 13:00:00 25.7 18 Nordeste 23 Nordeste 0 1012.1 -0.7 64
2019-08-22 12:00:00 25.3 18 Nordeste 24 Nordeste 0 1012.4 -0.5 65
2019-08-22 11:00:00 24.8 18 Nordeste 22 Nordeste 0 1012.8 0 67
2019-08-22 10:00:00 24.1 12 Nordeste 18 Nordeste 0 1012.8 0.1 67
2019-08-22 09:00:00 22.8 5 Sudeste 12 Sudeste 0 1012.9 0.4 67
2019-08-22 08:00:00 21 6 Sudeste 13 Sudeste 0 1012.8 0.2 71
2019-08-22 07:00:00 21 5 Sudeste 13 Sudeste 0 1012.7 -0.2 71
2019-08-22 06:00:00 21 6 Sur 13 Sur 0 1012.5 -0.7 71
2019-08-22 05:00:00 20.9 4 Sudeste 12 Sudeste 0 1012.6 -1.3 71
2019-08-22 04:00:00 21.1 5 Sudeste 14 Sudeste 0 1012.9 -1.3 71
2019-08-22 03:00:00 21.3 5 Sudeste 12 Sudeste 0 1013.2 -1.3 72
2019-08-22 02:00:00 21.4 4 Sudeste 13 Sudeste 0 1013.9 -0.9 71
2019-08-22 01:00:00 22 5 Sudeste 16 Nordeste 0 1014.2 -0.3 70
2019-08-22 00:00:00 22.4 7 Este 18 Este 0 1014.5 0.1 70
2019-08-21 23:00:00 22.7 9 Este 24 Este 0 1014.8 0.9 71
2019-08-21 22:00:00 22.8 19 Nordeste 27 Nordeste 0 1014.5 0.8 75
2019-08-21 21:00:00 23.2 19 Nordeste 28 Nordeste 0 1014.4 0.7 74
2019-08-21 20:00:00 23.8 19 Nordeste 30 Nordeste 0 1013.9 0.4 71
2019-08-21 19:00:00 24.7 20 Nordeste 29 Nordeste 0 1013.7 0.2 67
2019-08-21 18:00:00 25.4 22 Nordeste 30 Nordeste 0 1013.7 -0.2 65
2019-08-21 17:00:00 26.2 21 Nordeste 28 Este 0 1013.5 -0.8 61
2019-08-21 16:00:00 26.3 23 Nordeste 30 Nordeste 0 1013.5 -1.5 61
2019-08-21 15:00:00 25.9 24 Nordeste 31 Nordeste 0 1013.9 -1.5 64
2019-08-21 14:00:00 25.8 22 Nordeste 27 Nordeste 0 1014.3 -1.4 65
2019-08-21 13:00:00 25.1 18 Nordeste 28 Nordeste 0 1015 -0.8 67
2019-08-21 12:00:00 24.6 18 Nordeste 25 Nordeste 0 1015.4 -0.6 70
2019-08-21 11:00:00 23.9 13 Este 23 Este 0 1015.7 -0.2 72
2019-08-21 10:00:00 23.3 18 Nordeste 27 Nordeste 0 1015.8 0.1 77
2019-08-21 09:00:00 22.7 10 Este 21 Nordeste 0 1016 0.5 76
2019-08-21 08:00:00 22.4 4 Sudeste 12 Sudeste 0 1015.9 0.4 73
2019-08-21 07:00:00 22.4 4 Sudeste 11 Sudeste 0 1015.7 0.2 75
2019-08-21 06:00:00 22 5 Sudeste 16 Nordeste 0 1015.5 -0.6 76
2019-08-21 05:00:00 22 4 Sudeste 10 Sudeste 0 1015.5 -0.9 76
2019-08-21 04:00:00 22 4 Sudeste 11 Sudeste 0 1015.5 -1 77
2019-08-21 03:00:00 22.1 4 Sudeste 10 Sudeste 0 1016.1 -0.5 77
2019-08-21 02:00:00 22.6 3 Este 13 Sudeste 0 1016.4 -0.1 78
2019-08-21 01:00:00 22.8 9 Este 22 Nordeste 0 1016.5 0.4 80
2019-08-21 00:00:00 22.9 16 Nordeste 26 Nordeste 0 1016.6 0.9 80
2019-08-20 23:00:00 23.1 21 Nordeste 28 Nordeste 0 1016.5 1.2 79
2019-08-20 22:00:00 23.4 19 Nordeste 29 Nordeste 0 1016.1 1.2 77
2019-08-20 21:00:00 23.6 24 Nordeste 30 Este 0 1015.7 0.9 77
2019-08-20 20:00:00 24.1 21 Nordeste 28 Nordeste 0 1015.3 0.7 75
2019-08-20 19:00:00 24.7 19 Nordeste 26 Nordeste 0 1014.9 0.2 72
2019-08-20 18:00:00 26.3 20 Nordeste 29 Nordeste 0 1014.8 -0.3 67
2019-08-20 17:00:00 26 22 Nordeste 29 Nordeste 0 1014.6 -1 68
2019-08-20 16:00:00 26.3 22 Nordeste 28 Nordeste 0 1014.7 -1 67
2019-08-20 15:00:00 26.5 22 Nordeste 31 Nordeste 0 1015.1 -1.1 67
2019-08-20 14:00:00 26.2 23 Nordeste 31 Nordeste 0 1015.6 -0.5 69
2019-08-20 13:00:00 25.9 19 Nordeste 28 Nordeste 0 1015.7 -0.1 70
2019-08-20 12:00:00 25.3 22 Nordeste 30 Nordeste 0 1016.2 0.3 70
2019-08-20 11:00:00 24.4 22 Nordeste 33 Nordeste 0 1016.1 0.3 73
2019-08-20 10:00:00 23.8 11 Nordeste 22 Nordeste 0 1015.8 0.7 73
2019-08-20 09:00:00 22.8 5 Sudeste 13 Sudeste 0 1015.9 0.9 74
2019-08-20 08:00:00 21.2 4 Sudeste 13 Sudeste 0 1015.8 0.9 81
2019-08-20 07:00:00 21 2 Sur 13 Este 0 1015.1 0.1 81
2019-08-20 06:00:00 21.2 3 Sudeste 10 Sur 0 1015 -0.5 81
2019-08-20 05:00:00 21.6 3 Este 10 Sudeste 0 1014.9 -1.1 81
2019-08-20 04:00:00 21.9 5 Sudeste 19 Nordeste 0 1015 -1.5 80
2019-08-20 03:00:00 22.3 10 Nordeste 24 Nordeste 0 1015.5 -1.1 80
2019-08-20 02:00:00 22.8 14 Nordeste 22 Nordeste 0 1016 -0.3 81
2019-08-20 01:00:00 23 17 Nordeste 25 Nordeste 0 1016.5 1.1 80
2019-08-20 00:00:00 23.4 10 Nordeste 18 Nordeste 0 1016.6 1.8 80
2019-08-19 23:00:00 23.5 9 Nordeste 32 Nordeste 0 1016.3 2.4 81
2019-08-19 22:00:00 23.5 18 Nordeste 30 Nordeste 0 1015.4 2.2 82
2019-08-19 21:00:00 23.6 17 Nordeste 28 Nordeste 0 1014.8 1.3 82
2019-08-19 20:00:00 24.5 18 Nordeste 28 Nordeste 0 1013.9 0.7 78
2019-08-19 19:00:00 25.7 18 Nordeste 28 Nordeste 0 1013.2 0.2 74
2019-08-19 18:00:00 26.1 20 Nordeste 31 Nordeste 0 1013.5 0.1 71
2019-08-19 17:00:00 26.4 24 Nordeste 31 Nordeste 0 1013.2 -0.2 69
2019-08-19 16:00:00 27.1 19 Nordeste 28 Nordeste 0 1013 -0.7 68
2019-08-19 15:00:00 26.9 20 Nordeste 26 Nordeste 0 1013.4 -0.7 68
2019-08-19 14:00:00 26.8 18 Nordeste 30 Nordeste 0 1013.4 -0.2 68
2019-08-19 13:00:00 25.8 21 Nordeste 28 Nordeste 0 1013.7 0.4 71
2019-08-19 12:00:00 25.2 24 Nordeste 30 Nordeste 0 1014.1 0.7 73
2019-08-19 11:00:00 25.2 9 Nordeste 27 Nordeste 0 1013.6 -0.3 72
2019-08-19 10:00:00 23.6 3 Noroeste 14 Nordeste 0 1013.3 0.1 77
2019-08-19 09:00:00 22.8 2 Oeste 9 Sudoeste 0 1013.4 0.2 81
2019-08-19 08:00:00 21.7 0 Calma 9 Este 0 1013.9 0.7 85
2019-08-19 07:00:00 21.6 3 Sudeste 16 Nordeste 0 1013.2 -0.2 86
2019-08-19 06:00:00 21.6 4 Sudeste 10 Sudeste 0 1013.2 -0.7 85
2019-08-19 05:00:00 22.2 5 Este 12 Nordeste 0 1013.2 -1.1 85
2019-08-19 04:00:00 22.7 11 Nordeste 22 Nordeste 0 1013.4 -0.7 84
2019-08-19 03:00:00 22.9 10 Nordeste 18 Nordeste 0 1013.9 -0.3 85
2019-08-19 02:00:00 22.8 15 Nordeste 25 Norte 0 1014.3 0.5 86
2019-08-19 01:00:00 23.1 2 Oeste 18 Norte 0 1014.1 0.9 84
2019-08-19 00:00:00 23.6 12 Nordeste 21 Nordeste 0 1014.2 1.9 84
2019-08-18 23:00:00 23.7 3 Nordeste 13 Nordeste 0 1013.8 1.9 84
2019-08-18 22:00:00 23.9 9 Nordeste 23 Nordeste 0 1013.2 2 84
2019-08-18 21:00:00 24.3 9 Nordeste 22 Nordeste 0 1012.3 0.8 82
2019-08-18 20:00:00 25 18 Nordeste 27 Nordeste 0 1011.9 0.3 79
2019-08-18 19:00:00 26.1 17 Nordeste 27 Nordeste 0 1011.2 -0.7 73
2019-08-18 18:00:00 26.3 22 Nordeste 31 Nordeste 0 1011.5 -0.8 71
2019-08-18 17:00:00 26.4 24 Nordeste 33 Nordeste 0 1011.6 -1 71
2019-08-18 16:00:00 26.8 23 Nordeste 33 Nordeste 0 1011.9 -0.7 70
2019-08-18 15:00:00 26.6 23 Nordeste 31 Nordeste 0 1012.3 -0.4 70
2019-08-18 14:00:00 26.4 23 Nordeste 31 Nordeste 0 1012.6 0 72
2019-08-18 13:00:00 26.5 21 Nordeste 27 Este 0 1012.6 0.2 72
2019-08-18 12:00:00 25.8 10 Nordeste 19 Nordeste 0 1012.7 0.5 73
2019-08-18 11:00:00 24.9 5 Nordeste 12 Norte 0 1012.6 0.7 76
2019-08-18 10:00:00 23.8 6 Sudoeste 14 Oeste 0 1012.4 0.9 81
2019-08-18 09:00:00 22.8 5 Oeste 10 Sudoeste 0 1012.2 1.1 85
2019-08-18 08:00:00 22.9 0 Calma 9 Nordeste 0 1011.9 0.7 88
2019-08-18 07:00:00 22.7 0 Calma 9 Sur 0 1011.5 0 87
2019-08-18 06:00:00 22.7 2 Oeste 8 Nordeste 0 1011.1 -0.7 89
2019-08-18 05:00:00 22.9 2 Sur 9 Sudoeste 0 1011.2 -1.2 87
2019-08-18 04:00:00 23 3 Noroeste 9 Noroeste 0 1011.5 -1 88
2019-08-18 03:00:00 23.1 4 Norte 14 Norte 0 1011.8 -0.6 89
2019-08-18 02:00:00 23.3 3 Norte 13 Nordeste 0 1012.4 0.3 87
2019-08-18 01:00:00 23.6 2 Sudoeste 11 Sudoeste 0 1012.5 1 87
2019-08-18 00:00:00 23.6 4 Sudoeste 11 Sudoeste 0 1012.4 1.3 87
2019-08-17 23:00:00 24 5 Sudoeste 12 Nordeste 0 1012.1 1.7 86
2019-08-17 22:00:00 24 7 Nordeste 19 Nordeste 0 1011.5 1.3 87
2019-08-17 21:00:00 24.1 16 Nordeste 23 Nordeste 0 1011.1 1.1 86
2019-08-17 20:00:00 25.2 15 Nordeste 22 Nordeste 0 1010.4 0.3 79
2019-08-17 19:00:00 26.5 15 Nordeste 22 Nordeste 0 1010.2 0.1 74
2019-08-17 18:00:00 27.5 15 Nordeste 20 Nordeste 0 1010 -1 70
2019-08-17 17:00:00 27.4 17 Nordeste 23 Nordeste 0 1010.1 -0.8 70
2019-08-17 16:00:00 26.8 18 Nordeste 28 Este 0 1010.1 -1.1 72
2019-08-17 15:00:00 26.5 20 Nordeste 28 Nordeste 0 1011 -0.3 73
2019-08-17 14:00:00 27.5 18 Nordeste 26 Nordeste 0 1010.9 -0.1 71
2019-08-17 13:00:00 26.3 5 Norte 14 Oeste 0 1011.2 -0.1 73
2019-08-17 12:00:00 25 5 Norte 16 Norte 0 1011.3 0.3 79
2019-08-17 11:00:00 24.8 5 Oeste 14 Sudoeste 0 1011 0 78
2019-08-17 10:00:00 23.8 9 Oeste 14 Sudoeste 0 1011.3 0.6 83
2019-08-17 09:00:00 23.7 3 Sudoeste 10 Sudoeste 0 1011 0.5 83
2019-08-17 08:00:00 22.9 2 Sur 8 Sudoeste 0 1011 0.4 86
2019-08-17 07:00:00 23.1 6 Oeste 13 Oeste 0 1010.7 -0.2 88
2019-08-17 06:00:00 23 3 Sur 10 Sur 0 1010.5 -0.8 86
2019-08-17 05:00:00 23.2 2 Sur 9 Sudoeste 0 1010.6 -1 86
2019-08-17 04:00:00 23.3 0 Calma 12 Oeste 0 1010.9 -1.2 87
2019-08-17 03:00:00 23.5 2 Sudoeste 6 Oeste 0 1011.3 -1.4 86
2019-08-17 02:00:00 23.6 0 Calma 6 Sudoeste 0 1011.6 -1 87
2019-08-17 01:00:00 23.6 0 Calma 6 Oeste 0 1012.1 -0.3 87
2019-08-17 00:00:00 23.6 4 Norte 12 Norte 0 1012.7 1 88
2019-08-16 23:00:00 23.8 5 Nordeste 19 Nordeste 0 1012.6 1.2 87
2019-08-16 22:00:00 23.7 10 Nordeste 18 Nordeste 0 1012.4 0.7 88
2019-08-16 21:00:00 23.9 7 Nordeste 19 Nordeste 0 1011.7 0.2 87
2019-08-16 20:00:00 24.1 9 Nordeste 13 Nordeste 0 1011.4 -0.1 87
2019-08-16 19:00:00 24.3 9 Este 15 Este 0 1011.7 0.1 85
2019-08-16 18:00:00 24.5 10 Nordeste 16 Nordeste 0 1011.5 -0.2 83
2019-08-16 17:00:00 24.9 14 Nordeste 19 Este 0 1011.5 -0.5 81
2019-08-16 16:00:00 25.1 14 Nordeste 18 Nordeste 0 1011.6 -0.8 78
2019-08-16 15:00:00 26.7 12 Nordeste 18 Nordeste 0 1011.7 -1.1 74
2019-08-16 14:00:00 25.7 12 Nordeste 20 Nordeste 0 1012 -1 75
2019-08-16 13:00:00 25.9 15 Nordeste 19 Este 0 1012.4 -0.4 74
2019-08-16 12:00:00 25.6 12 Nordeste 16 Nordeste 0 1012.8 -0.1 73
2019-08-16 11:00:00 24.2 10 Nordeste 21 Nordeste 0 1013 0.1 76
2019-08-16 10:00:00 23.4 6 Sudoeste 14 Sudoeste 0 1012.8 0 79
2019-08-16 09:00:00 23.2 6 Nordeste 15 Nordeste 0 1012.9 0.2 81
2019-08-16 08:00:00 22.9 8 Este 15 Norte 0 1012.9 0 81
2019-08-16 07:00:00 22.8 0 Calma 12 Sudeste 0 1012.8 -0.6 76
2019-08-16 06:00:00 22.9 6 Este 18 Nordeste 0 1012.7 -1 81
2019-08-16 05:00:00 22.9 10 Nordeste 15 Nordeste 0 1012.9 -1.3 84
2019-08-16 04:00:00 22.9 6 Este 17 Este 0 1013.4 -1.2 82
2019-08-16 03:00:00 22.8 9 Este 15 Este 0 1013.7 -1 81
2019-08-16 02:00:00 22.9 12 Nordeste 22 Este 0 1014.2 -0.6 85
2019-08-16 01:00:00 23 18 Nordeste 24 Nordeste 0 1014.6 0.3 86
2019-08-16 00:00:00 23.2 17 Nordeste 22 Nordeste 0 1014.7 0.5 84
2019-08-15 23:00:00 23.5 14 Nordeste 19 Nordeste 0 1014.8 1.1 82
2019-08-15 22:00:00 23.7 10 Este 17 Este 0 1014.3 0.6 81
2019-08-15 21:00:00 23.9 12 Nordeste 17 Nordeste 0 1014.2 0.3 78
2019-08-15 20:00:00 24.5 9 Nordeste 22 Nordeste 0 1013.7 0 75
2019-08-15 19:00:00 24.8 13 Nordeste 23 Nordeste 0 1013.7 0 73
2019-08-15 18:00:00 25.3 15 Nordeste 26 Nordeste 0 1013.9 -0.4 70
2019-08-15 17:00:00 26.2 18 Nordeste 23 Este 0 1013.7 -1 67
2019-08-15 16:00:00 27.4 18 Nordeste 24 Nordeste 0 1013.7 -1.3 64
2019-08-15 15:00:00 26.8 19 Nordeste 26 Nordeste 0 1014.3 -0.8 65
2019-08-15 14:00:00 26.4 18 Nordeste 23 Nordeste 0 1014.7 -0.7 65
2019-08-15 13:00:00 26.1 18 Nordeste 22 Nordeste 0 1015 0 66
2019-08-15 12:00:00 25.7 15 Nordeste 18 Nordeste 0 1015.1 -0.1 66
2019-08-15 11:00:00 25.1 12 Nordeste 15 Nordeste 0 1015.4 -0.3 67
2019-08-15 10:00:00 24.4 5 Nordeste 11 Nordeste 0 1015 -0.7 66
2019-08-15 09:00:00 22.8 3 Sudeste 12 Sudeste 0 1015.2 -0.2 66
2019-08-15 08:00:00 20.4 6 Sur 14 Sudeste 0 1015.7 0.1 72
2019-08-15 07:00:00 20.4 5 Sur 14 Sur 0 1015.7 -0.1 73
2019-08-15 06:00:00 20.6 6 Sur 13 Sur 0 1015.4 -0.8 72
2019-08-15 05:00:00 20.7 6 Sur 10 Sur 0 1015.6 -1.1 71
2019-08-15 04:00:00 21.1 5 Sur 11 Sudeste 0 1015.8 -1 71
2019-08-15 03:00:00 21 5 Sur 12 Sudeste 0 1016.2 -0.5 71
2019-08-15 02:00:00 21.5 3 Sudeste 10 Sudeste 0 1016.7 -0.1 71
2019-08-15 01:00:00 21.6 5 Sur 13 Sur 0 1016.8 0.7 70
2019-08-15 00:00:00 22.6 5 Este 13 Nordeste 0 1016.7 1.1 72
2019-08-14 23:00:00 22.9 12 Nordeste 19 Nordeste 0 1016.8 1.7 74
2019-08-14 22:00:00 23.2 16 Nordeste 20 Nordeste 0 1016.1 1.4 74
2019-08-14 21:00:00 23.6 13 Nordeste 19 Nordeste 0 1015.6 0.7 73
2019-08-14 20:00:00 24.2 15 Nordeste 22 Nordeste 0 1015.1 0 68
2019-08-14 19:00:00 25.7 18 Nordeste 22 Nordeste 0 1014.7 -0.3 65
2019-08-14 18:00:00 26 18 Nordeste 23 Nordeste 0 1014.9 -0.5 64
2019-08-14 17:00:00 26.8 19 Nordeste 26 Nordeste 0 1015.1 -0.8 62
2019-08-14 16:00:00 26.5 18 Nordeste 23 Nordeste 0 1015 -1.7 61
2019-08-14 15:00:00 26.5 18 Nordeste 22 Nordeste 0 1015.4 -1.3 61
2019-08-14 14:00:00 26.4 17 Nordeste 23 Nordeste 0 1015.9 -0.8 61
2019-08-14 13:00:00 25.6 17 Nordeste 21 Este 0 1016.7 0.2 64
2019-08-14 12:00:00 25.4 17 Nordeste 22 Nordeste 0 1016.7 0.5 63
2019-08-14 11:00:00 25 14 Nordeste 17 Nordeste 0 1016.7 0.3 64
2019-08-14 10:00:00 24.1 11 Nordeste 15 Nordeste 0 1016.5 0.4 64
2019-08-14 09:00:00 23.3 4 Este 8 Este 0 1016.2 0 61
2019-08-14 08:00:00 20.9 5 Sur 13 Sur 0 1016.4 0.4 67
2019-08-14 07:00:00 20.3 7 Sur 14 Sur 0 1016.1 -0.2 69
2019-08-14 06:00:00 20.5 2 Sur 14 Sur 0 1016.2 -0.5 68
2019-08-14 05:00:00 20.5 4 Sudeste 13 Sur 0 1016 -1.1 68
2019-08-14 04:00:00 20.7 5 Sur 14 Sudeste 0 1016.3 -0.9 68
2019-08-14 03:00:00 21 4 Sur 11 Sur 0 1016.7 -0.8 68
2019-08-14 02:00:00 21.2 5 Sudeste 11 Sudeste 0 1017.1 -0.2 67
2019-08-14 01:00:00 21.7 3 Sudeste 11 Sudeste 0 1017.2 0.4 66
2019-08-14 00:00:00 22.1 6 Sudeste 15 Este 0 1017.5 1.3 65
2019-08-13 23:00:00 22.7 10 Este 18 Nordeste 0 1017.3 1.4 68
2019-08-13 22:00:00 22.8 16 Nordeste 24 Este 0 1016.8 1 71
2019-08-13 21:00:00 23.3 18 Nordeste 26 Nordeste 0 1016.2 0.4 71
2019-08-13 20:00:00 24.1 19 Nordeste 25 Nordeste 0 1015.9 0.2 67
2019-08-13 19:00:00 24.7 15 Nordeste 26 Nordeste 0 1015.8 -0.3 66
2019-08-13 18:00:00 25.5 20 Nordeste 28 Nordeste 0 1015.8 -0.4 62
2019-08-13 17:00:00 25.9 19 Nordeste 27 Nordeste 0 1015.7 -0.9 61
2019-08-13 16:00:00 25.5 22 Nordeste 28 Nordeste 0 1016.1 -0.8 63
2019-08-13 15:00:00 26.2 21 Nordeste 28 Nordeste 0 1016.2 -0.7 61
2019-08-13 14:00:00 26 23 Nordeste 28 Nordeste 0 1016.6 -0.4 63
2019-08-13 13:00:00 25.6 22 Nordeste 27 Este 0 1016.9 0.1 65
2019-08-13 12:00:00 25.2 21 Nordeste 27 Nordeste 0 1016.9 0.1 67
2019-08-13 11:00:00 24.7 20 Nordeste 25 Este 0 1017 0 67
2019-08-13 10:00:00 24 15 Nordeste 20 Nordeste 0 1016.8 -0.1 67
2019-08-13 09:00:00 23.5 6 Este 13 Este 0 1016.8 0.1 64
2019-08-13 08:00:00 20.8 6 Sur 14 Sudeste 0 1017 0.3 70
2019-08-13 07:00:00 20.6 7 Sur 14 Sur 0 1016.9 0 70
2019-08-13 06:00:00 21 5 Sur 12 Sur 0 1016.7 -0.4 70
2019-08-13 05:00:00 21.2 6 Sudeste 12 Sudeste 0 1016.7 -0.8 71
2019-08-13 04:00:00 21.6 6 Sudeste 13 Sudeste 0 1016.9 -0.9 71
2019-08-13 03:00:00 21.6 6 Sudeste 13 Sudeste 0 1017.1 -0.9 69
2019-08-13 02:00:00 21.7 4 Sudeste 11 Sur 0 1017.5 -0.4 70
2019-08-13 01:00:00 21.9 4 Sudeste 15 Este 0 1017.8 0.4 71
2019-08-13 00:00:00 22.5 5 Este 19 Nordeste 0 1018 1.4 72
2019-08-12 23:00:00 22.7 15 Nordeste 25 Nordeste 0 1017.9 2.1 76
2019-08-12 22:00:00 22.9 18 Nordeste 26 Nordeste 0 1017.4 2.3 76
2019-08-12 21:00:00 23.4 16 Nordeste 28 Nordeste 0 1016.6 1.5 73
2019-08-12 20:00:00 24.4 22 Nordeste 29 Nordeste 0 1015.8 0.7 71
2019-08-12 19:00:00 25.3 21 Nordeste 28 Nordeste 0 1015.1 -0.3 66
2019-08-12 18:00:00 25.8 23 Nordeste 32 Nordeste 0 1015.1 -0.6 65
2019-08-12 17:00:00 26.2 20 Nordeste 33 Nordeste 0 1015.1 -0.8 64
2019-08-12 16:00:00 26 24 Nordeste 33 Este 0 1015.4 -1 64
2019-08-12 15:00:00 25.9 27 Nordeste 35 Nordeste 0 1015.7 -0.7 65
2019-08-12 14:00:00 26.2 22 Nordeste 34 Nordeste 0 1015.9 -0.5 64
2019-08-12 13:00:00 25.6 23 Nordeste 32 Nordeste 0 1016.4 0.1 67
2019-08-12 12:00:00 25.3 23 Nordeste 32 Nordeste 0 1016.4 0 67
2019-08-12 11:00:00 25 17 Nordeste 28 Nordeste 0 1016.4 0 69
2019-08-12 10:00:00 24.2 18 Nordeste 26 Nordeste 0 1016.3 0 73
2019-08-12 09:00:00 23.8 4 Este 14 Sur 0 1016.4 0.5 66
2019-08-12 08:00:00 22.1 6 Sudeste 13 Sudeste 0 1016.4 0.4 72
2019-08-12 07:00:00 21.2 4 Sur 15 Sur 0 1016.3 0.1 69
2019-08-12 06:00:00 21.6 4 Sudeste 14 Sur 0 1015.9 -0.6 71
2019-08-12 05:00:00 21.1 8 Sudeste 15 Sudeste 0 1016 -1.4 69
2019-08-12 04:00:00 21.2 7 Sudeste 14 Sur 0 1016.2 -1.6 68
2019-08-12 03:00:00 21.7 6 Sudeste 13 Sur 0 1016.5 -1.4 67
2019-08-12 02:00:00 21.6 5 Sur 15 Sur 0 1017.4 -0.4 65
2019-08-12 01:00:00 22 6 Sudeste 14 Sudeste 0 1017.8 0.2 66
2019-08-12 00:00:00 22.7 9 Este 20 Norte 0 1017.9 0.8 77
2019-08-11 23:00:00 22.9 4 Sudeste 27 Nordeste 0 1017.8 1.5 74
2019-08-11 22:00:00 23 16 Nordeste 28 Nordeste 0 1017.6 1.7 79
2019-08-11 21:00:00 23.3 19 Nordeste 27 Nordeste 0 1017.1 1.3 77
2019-08-11 20:00:00 24 22 Nordeste 29 Nordeste 0 1016.3 0.3 74
2019-08-11 19:00:00 25 20 Nordeste 28 Nordeste 0 1015.9 -0.2 71
2019-08-11 18:00:00 24.4 18 Nordeste 31 Nordeste 0 1015.8 -0.5 73
2019-08-11 17:00:00 24.3 23 Nordeste 36 Nordeste 0 1016 -0.5 74
2019-08-11 16:00:00 24.5 21 Nordeste 32 Nordeste 0 1016.1 -0.8 74
2019-08-11 15:00:00 25.1 20 Nordeste 27 Nordeste 0 1016.3 -0.6 76
2019-08-11 14:00:00 25 21 Nordeste 28 Nordeste 0 1016.5 -1 77
2019-08-11 13:00:00 25.3 19 Nordeste 24 Nordeste 0 1016.9 -0.4 77
2019-08-11 12:00:00 25.1 8 Nordeste 20 Nordeste 0 1016.9 0 78
2019-08-11 11:00:00 24.4 6 Nordeste 30 Nordeste 0 1017.5 0.7 83
2019-08-11 10:00:00 23.7 21 Nordeste 28 Nordeste 0 1017.3 0.9 88
2019-08-11 09:00:00 24.6 8 Nordeste 13 Norte 0 1016.9 0.6 79
2019-08-11 08:00:00 24.3 2 Sudeste 12 Este 0 1016.8 0.4 71
2019-08-11 07:00:00 23.8 4 Sudeste 17 Este 0 1016.4 -0.2 77
2019-08-11 06:00:00 24 8 Este 18 Nordeste 0 1016.3 -0.6 80
2019-08-11 05:00:00 24.3 6 Este 14 Nordeste 0 1016.4 -0.9 78
2019-08-11 04:00:00 24.3 4 Sudeste 12 Sudeste 0 1016.6 -1.5 70
2019-08-11 03:00:00 24.1 4 Sudeste 14 Este 0 1016.9 -1.1 73
2019-08-11 02:00:00 24.2 5 Sudeste 14 Sudeste 0 1017.3 -0.6 74
2019-08-11 01:00:00 23.9 8 Este 22 Este 0 1018.1 0.8 82
2019-08-11 00:00:00 23.8 12 Nordeste 20 Nordeste 0 1018 1.4 83
2019-08-10 23:00:00 23.9 7 Este 15 Este 0 1017.9 1.5 81
2019-08-10 22:00:00 24.6 5 Nordeste 9 Nordeste 0 1017.3 1.2 77
2019-08-10 21:00:00 25.1 4 Nordeste 12 Este 0 1016.6 0.6 75
2019-08-10 20:00:00 25.5 8 Este 16 Este 0 1016.4 0.5 74
2019-08-10 19:00:00 26.9 8 Nordeste 14 Nordeste 0 1016.1 -0.3 69
2019-08-10 18:00:00 28.1 7 Nordeste 15 Nordeste 0 1016 -0.8 66
2019-08-10 17:00:00 28.4 10 Nordeste 33 Nordeste 0 1015.9 -1.3 64
2019-08-10 16:00:00 28.5 10 Nordeste 19 Este 0 1016.4 -1.1 64
2019-08-10 15:00:00 28 10 Nordeste 18 Este 0 1016.8 -0.8 64
2019-08-10 14:00:00 28.5 13 Nordeste 19 Nordeste 0 1017.2 0 64
2019-08-10 13:00:00 27.9 8 Este 15 Este 0 1017.5 0.8 64
2019-08-10 12:00:00 26.9 8 Este 15 Este 0 1017.6 1.3 68
2019-08-10 11:00:00 26.3 8 Este 16 Este 0 1017.2 0.5 70
2019-08-10 10:00:00 25.6 7 Nordeste 12 Este 0 1016.7 0.2 69
2019-08-10 09:00:00 24.9 3 Este 9 Sudeste 0 1016.3 -0.2 70
2019-08-10 08:00:00 22.5 5 Sur 13 Sur 0 1016.7 0.1 75
2019-08-10 07:00:00 22.2 5 Sur 13 Sudeste 0 1016.5 -0.5 74
2019-08-10 06:00:00 22.1 4 Sur 10 Sudeste 0 1016.5 -0.9 72
2019-08-10 05:00:00 22.1 5 Sur 11 Sur 0 1016.6 -1.2 74
2019-08-10 04:00:00 22.3 5 Sur 9 Sur 0 1017 -1 75
2019-08-10 03:00:00 22.5 2 Sur 5 Sudeste 0 1017.4 -0.8 80
2019-08-10 02:00:00 22.8 0 Calma 5 Este 0 1017.8 0.3 82
2019-08-10 01:00:00 22.9 0 Calma 4 Este 0 1018 1 85
2019-08-10 00:00:00 23.2 4 Este 13 Este 0 1018.2 1.9 84
2019-08-09 23:00:00 23.3 10 Nordeste 16 Nordeste 0 1017.5 2 84
2019-08-09 22:00:00 23.5 4 Este 12 Este 0 1017 2 82
2019-08-09 21:00:00 24 7 Este 18 Nordeste 0 1016.3 1.5 78
2019-08-09 20:00:00 25.4 14 Nordeste 18 Nordeste 0 1015.5 0.3 72
2019-08-09 19:00:00 26.6 13 Nordeste 20 Nordeste 0 1015 -0.5 68
2019-08-09 18:00:00 27.1 16 Nordeste 22 Nordeste 0 1014.8 -0.9 65
2019-08-09 17:00:00 27.1 15 Nordeste 20 Nordeste 0 1015.2 -0.5 66
2019-08-09 16:00:00 27.7 15 Nordeste 23 Nordeste 0 1015.5 0 65
2019-08-09 15:00:00 27.6 16 Nordeste 23 Nordeste 0 1015.7 0.2 64
2019-08-09 14:00:00 26.6 16 Nordeste 21 Nordeste 0 1015.7 0.1 68
2019-08-09 13:00:00 26.1 15 Nordeste 22 Este 0 1015.5 0 70
2019-08-09 12:00:00 25.5 16 Nordeste 22 Nordeste 0 1015.5 -0.1 70
2019-08-09 11:00:00 25.5 9 Nordeste 12 Nordeste 0 1015.6 0.1 70
2019-08-09 10:00:00 24.4 6 Nordeste 9 Nordeste 0 1015.5 0.3 71
2019-08-09 09:00:00 22.7 2 Noroeste 6 Oeste 0 1015.6 0.1 76
2019-08-09 08:00:00 22.1 0 Calma 5 Sur 0 1015.5 -0.1 79
2019-08-09 07:00:00 22.1 2 Sudeste 11 Nordeste 0 1015.2 -0.6 80
2019-08-09 06:00:00 22.5 8 Este 15 Nordeste 0 1015.5 -0.7 80
2019-08-09 05:00:00 22.5 0 Calma 7 Nordeste 0 1015.6 -0.8 81
2019-08-09 04:00:00 22.3 0 Calma 8 Nordeste 0 1015.8 -0.6 82
2019-08-09 03:00:00 22.5 5 Nordeste 9 Nordeste 0 1016.2 -0.1 82
2019-08-09 02:00:00 22.6 0 Calma 6 Este 0 1016.4 0.5 81
2019-08-09 01:00:00 22.7 5 Este 11 Nordeste 0 1016.4 1.2 81
2019-08-09 00:00:00 23 6 Este 15 Nordeste 0 1016.3 1.5 82
2019-08-08 23:00:00 23.2 8 Este 14 Nordeste 0 1015.9 2 80
2019-08-08 22:00:00 23.5 8 Este 13 Este 0 1015.2 1.8 77
2019-08-08 21:00:00 23.9 9 Nordeste 14 Nordeste 0 1014.8 1.6 76
2019-08-08 20:00:00 25.1 12 Nordeste 16 Nordeste 0 1013.9 0.7 70
2019-08-08 19:00:00 26.5 13 Nordeste 17 Nordeste 0 1013.4 0.4 65
2019-08-08 18:00:00 27.5 13 Nordeste 18 Nordeste 0 1013.2 -0.1 62
2019-08-08 17:00:00 27.7 15 Nordeste 20 Nordeste 0 1013.2 -0.3 61
2019-08-08 16:00:00 27.4 15 Nordeste 19 Nordeste 0 1013 -0.6 62
2019-08-08 15:00:00 27.2 15 Nordeste 18 Nordeste 0 1013.3 -0.4 62
2019-08-08 14:00:00 27.2 13 Nordeste 18 Nordeste 0 1013.5 -0.2 63
2019-08-08 13:00:00 26.6 15 Nordeste 18 Nordeste 0 1013.6 0 65
2019-08-08 12:00:00 26.1 9 Nordeste 12 Nordeste 0 1013.7 0.3 66
2019-08-08 11:00:00 24.5 4 Norte 8 Norte 0 1013.7 0 69
2019-08-08 10:00:00 24 2 Norte 7 Norte 0 1013.6 0.4 68
2019-08-08 09:00:00 23.7 0 Calma 9 Sur 0 1013.4 0 70
2019-08-08 08:00:00 21.7 3 Sur 10 Sur 0 1013.7 0.7 74
2019-08-08 07:00:00 21.2 4 Sur 9 Sudeste 0 1013.2 -0.3 75
2019-08-08 06:00:00 21.3 4 Sur 10 Sudeste 0 1013.4 -0.6 74
2019-08-08 05:00:00 21.6 4 Sur 10 Sudeste 0 1013 -1.5 72
2019-08-08 04:00:00 21.9 4 Sur 9 Sudeste 0 1013.5 -1.3 72
2019-08-08 03:00:00 21.9 3 Sur 13 Sur 0 1014 -0.8 71
2019-08-08 02:00:00 21.5 6 Sur 12 Sudeste 0 1014.5 0 70
2019-08-08 01:00:00 22 3 Sur 8 Sur 0 1014.8 0.8 74
2019-08-08 00:00:00 22.4 3 Sudeste 15 Nordeste 0 1014.8 1.1 75
2019-08-07 23:00:00 23.1 13 Nordeste 21 Nordeste 0 1014.5 1.2 79
2019-08-07 22:00:00 23.5 18 Nordeste 24 Nordeste 0 1014 0.7 75
2019-08-07 21:00:00 23.8 10 Este 17 Este 0 1013.7 0.6 73
2019-08-07 20:00:00 24.5 11 Este 18 Nordeste 0 1013.3 -0.1 71
2019-08-07 19:00:00 25.2 15 Nordeste 21 Este 0 1013.3 -0.1 66
2019-08-07 18:00:00 26.9 17 Nordeste 21 Nordeste 0 1013.1 -0.7 62
2019-08-07 17:00:00 26.9 17 Nordeste 23 Nordeste 0 1013.4 -0.7 62
2019-08-07 16:00:00 26.8 16 Nordeste 25 Nordeste 0 1013.4 -0.8 61
2019-08-07 15:00:00 26.5 18 Nordeste 24 Nordeste 0 1013.8 -0.4 63
2019-08-07 14:00:00 25.7 19 Nordeste 28 Nordeste 0 1014.1 -0.2 64
2019-08-07 13:00:00 25.6 19 Nordeste 27 Este 0 1014.2 0.2 67
2019-08-07 12:00:00 26.2 15 Nordeste 22 Este 0 1014.2 0.2 68
2019-08-07 11:00:00 25.4 15 Nordeste 19 Nordeste 0 1014.3 0.3 66
2019-08-07 10:00:00 25.4 11 Nordeste 14 Este 0 1014 0.2 63
2019-08-07 09:00:00 24 4 Sudeste 13 Sudeste 0 1014 0.6 61
2019-08-07 08:00:00 21.6 7 Sur 18 Sur 0 1014 0.6 65
2019-08-07 07:00:00 21.8 6 Sur 13 Sudeste 0 1013.8 0.2 63
2019-08-07 06:00:00 22.4 3 Sudeste 11 Este 0 1013.4 -0.4 64
2019-08-07 05:00:00 22 5 Sudeste 14 Sudeste 0 1013.4 -0.8 64
2019-08-07 04:00:00 22.5 4 Sudeste 10 Este 0 1013.6 -1.2 63
2019-08-07 03:00:00 22.8 5 Sudeste 13 Sudeste 0 1013.8 -1.3 65
2019-08-07 02:00:00 22.7 4 Sur 13 Sudeste 0 1014.2 -0.9 63
2019-08-07 01:00:00 22.5 5 Sudeste 14 Sudeste 0 1014.8 0.1 67
2019-08-07 00:00:00 23.3 5 Este 12 Este 0 1015.1 1 68
2019-08-06 23:00:00 23.2 3 Este 21 Nordeste 0 1015.1 1.5 73
2019-08-06 22:00:00 23.5 8 Este 14 Este 0 1014.7 1.4 74
2019-08-06 21:00:00 24 12 Nordeste 16 Este 0 1014.1 0.9 71
2019-08-06 20:00:00 24.8 10 Nordeste 17 Nordeste 0 1013.6 0.3 67
2019-08-06 19:00:00 26.1 14 Nordeste 18 Nordeste 0 1013.3 -0.8 67
2019-08-06 18:00:00 26.5 11 Nordeste 17 Nordeste 0 1013.2 -1.4 66
2019-08-06 17:00:00 27 8 Nordeste 11 Este 0 1013.3 -1.6 64
2019-08-06 16:00:00 26.9 8 Nordeste 15 Nordeste 0 1014.1 -1.1 64
2019-08-06 15:00:00 27 10 Nordeste 16 Nordeste 0 1014.6 -0.6 65
2019-08-06 14:00:00 27 14 Nordeste 17 Nordeste 0 1014.9 -0.3 64
2019-08-06 13:00:00 26.9 12 Nordeste 14 Nordeste 0 1015.2 0.8 65
2019-08-06 12:00:00 25.9 11 Nordeste 16 Norte 0 1015.2 -0.4 67
2019-08-06 11:00:00 25.4 12 Nordeste 21 Nordeste 0 1015.2 -0.5 67
2019-08-06 10:00:00 25.4 11 Este 22 Este 0 1014.4 -1.1 58
2019-08-06 09:00:00 22.3 3 Sur 8 Sudeste 0 1015.6 0.3 68
2019-08-06 08:00:00 21.1 3 Sur 12 Sur 0 1015.7 0.3 66
2019-08-06 07:00:00 20.7 5 Sur 10 Sudeste 0 1015.5 -0.3 71
2019-08-06 06:00:00 21.6 5 Sudeste 13 Sudeste 0 1015.3 -0.6 68
2019-08-06 05:00:00 21.5 3 Sur 9 Sudeste 0 1015.4 -1.2 70
2019-08-06 04:00:00 21.7 6 Sudeste 15 Sudeste 0 1015.8 -1.2 65
2019-08-06 03:00:00 21.7 5 Sur 14 Sudeste 0 1015.9 -0.8 65
2019-08-06 02:00:00 21.9 5 Sur 13 Sur 0 1016.6 0.2 68
2019-08-06 01:00:00 22.4 5 Sudeste 14 Sudeste 0 1017 0.9 71
2019-08-06 00:00:00 22.4 3 Sudeste 13 Nordeste 0 1016.7 1.2 73
2019-08-05 23:00:00 22.9 10 Este 17 Nordeste 0 1016.4 1.4 78
2019-08-05 22:00:00 23.1 9 Este 14 Este 0 1016.1 1.6 80
2019-08-05 21:00:00 23.8 6 Este 18 Este 0 1015.5 0.9 77
2019-08-05 20:00:00 24.6 13 Este 18 Nordeste 0 1015 0.3 72
2019-08-05 19:00:00 25.9 12 Nordeste 21 Nordeste 0 1014.5 -0.5 67
2019-08-05 18:00:00 25.5 15 Nordeste 22 Nordeste 0 1014.6 -0.5 66
2019-08-05 17:00:00 27 15 Nordeste 22 Nordeste 0 1014.7 -0.7 64
2019-08-05 16:00:00 27.3 16 Nordeste 27 Nordeste 0 1015 -0.7 62
2019-08-05 15:00:00 26.7 17 Nordeste 26 Nordeste 0 1015.1 -0.7 64
2019-08-05 14:00:00 26.9 16 Nordeste 20 Nordeste 0 1015.4 -0.5 65
2019-08-05 13:00:00 26.4 15 Nordeste 17 Este 0 1015.7 -0.4 66
2019-08-05 12:00:00 25.9 12 Nordeste 17 Nordeste 0 1015.8 -0.6 68
2019-08-05 11:00:00 25.4 12 Nordeste 18 Nordeste 0 1015.9 -0.3 69
2019-08-05 10:00:00 24.5 15 Nordeste 19 Nordeste 0 1016.1 0.1 73
2019-08-05 09:00:00 22.8 3 Sudeste 13 Sur 0 1016.4 0.5 63
2019-08-05 08:00:00 21.8 6 Sur 15 Sur 0 1016.2 0.3 64
2019-08-05 07:00:00 22 6 Sur 14 Sur 0 1016 0 65
2019-08-05 06:00:00 22.9 4 Este 7 Sudeste 0 1015.9 -0.5 65
2019-08-05 05:00:00 23 4 Este 12 Nordeste 0 1015.9 -1 72
2019-08-05 04:00:00 23.2 4 Este 14 Este 0 1016 -1.2 61
2019-08-05 03:00:00 22.9 5 Sudeste 17 Este 0 1016.4 -0.7 65
2019-08-05 02:00:00 23.1 6 Este 14 Nordeste 0 1016.9 -0.2 78
2019-08-05 01:00:00 23 4 Nordeste 10 Nordeste 0 1017.2 0.7 64
2019-08-05 00:00:00 23 3 Este 15 Este 0 1017.1 1.1 67
2019-08-04 23:00:00 23.1 9 Nordeste 15 Nordeste 0 1017.1 1.7 81
2019-08-04 22:00:00 23.5 10 Nordeste 15 Nordeste 0 1016.5 1.5 77
2019-08-04 21:00:00 24.1 9 Nordeste 14 Nordeste 0 1016 1.1 72
2019-08-04 20:00:00 25.2 11 Nordeste 20 Nordeste 0 1015.4 0.4 67
2019-08-04 19:00:00 26.5 16 Nordeste 20 Nordeste 0 1015 -0.3 64
2019-08-04 18:00:00 27.9 10 Nordeste 14 Nordeste 0 1014.9 -0.7 60
2019-08-04 17:00:00 27.6 5 Nordeste 9 Nordeste 0 1015 -0.8 56
2019-08-04 16:00:00 28.4 6 Nordeste 15 Nordeste 0 1015.3 -0.8 55
2019-08-04 15:00:00 27.6 13 Nordeste 22 Nordeste 0 1015.6 -0.9 56
2019-08-04 14:00:00 27.3 12 Nordeste 18 Nordeste 0 1015.8 -0.8 55
2019-08-04 13:00:00 27.1 7 Nordeste 16 Este 0 1016.1 -0.3 58
2019-08-04 12:00:00 26.4 10 Este 21 Nordeste 0 1016.5 -0.1 60
2019-08-04 11:00:00 25.3 15 Nordeste 19 Nordeste 0 1016.6 -0.3 62
2019-08-04 10:00:00 25 7 Este 19 Este 0 1016.4 -0.2 54
2019-08-04 09:00:00 22.7 4 Este 15 Sur 0 1016.6 0.3 62
2019-08-04 08:00:00 20.5 6 Sur 14 Sur 0 1016.9 0.5 66
2019-08-04 07:00:00 20.8 6 Sur 15 Sudeste 0 1016.6 0.1 65
2019-08-04 06:00:00 20.4 8 Sur 15 Sudeste 0 1016.3 -0.5 66
2019-08-04 05:00:00 20.2 5 Sur 14 Sudeste 0 1016.4 -0.6 65
2019-08-04 04:00:00 20.6 8 Sur 17 Sur 0 1016.5 -0.8 65
2019-08-04 03:00:00 20.3 8 Sudeste 14 Sudeste 0 1016.8 -0.8 66
2019-08-04 02:00:00 21 5 Sur 10 Sur 0 1017 -0.1 65
2019-08-04 01:00:00 21.2 5 Sur 12 Sur 0 1017.3 0.5 65
2019-08-04 00:00:00 21.8 4 Sur 13 Nordeste 0 1017.6 1.4 65
2019-08-03 23:00:00 22.3 10 Este 18 Nordeste 0 1017.1 1.5 68
2019-08-03 22:00:00 22.6 13 Nordeste 21 Nordeste 0 1016.8 1.3 69
2019-08-03 21:00:00 23.3 14 Nordeste 20 Nordeste 0 1016.2 0.9 70
2019-08-03 20:00:00 24.9 14 Nordeste 18 Nordeste 0 1015.6 -0.1 65
2019-08-03 19:00:00 25.7 14 Nordeste 18 Nordeste 0 1015.5 -0.9 62
2019-08-03 18:00:00 26.7 12 Nordeste 14 Nordeste 0 1015.3 -1.3 59
2019-08-03 17:00:00 26.3 12 Nordeste 16 Nordeste 0 1015.7 -1.3 58
2019-08-03 16:00:00 25.8 11 Nordeste 18 Nordeste 0 1016.4 -0.4 62
2019-08-03 15:00:00 26.2 14 Nordeste 20 Norte 0 1016.6 -0.5 61
2019-08-03 14:00:00 26.2 13 Nordeste 21 Nordeste 0 1017 0 61
2019-08-03 13:00:00 26.3 15 Nordeste 20 Nordeste 0 1016.8 0.2 61
2019-08-03 12:00:00 25 14 Nordeste 18 Este 0 1017.1 0.8 63
2019-08-03 11:00:00 25 8 Nordeste 16 Este 0 1017 0.5 60
2019-08-03 10:00:00 24.5 11 Nordeste 15 Nordeste 0 1016.6 0.4 63
2019-08-03 09:00:00 23.4 5 Sudeste 12 Este 0 1016.3 0 62
2019-08-03 08:00:00 21.6 3 Sudeste 13 Sudeste 0 1016.5 0.2 68
2019-08-03 07:00:00 21.6 5 Sudeste 13 Sudeste 0 1016.2 -0.2 67
2019-08-03 06:00:00 21 4 Sur 12 Sur 0 1016.3 -0.3 71
2019-08-03 05:00:00 20.9 4 Sur 10 Sudeste 0 1016.3 -0.8 72
2019-08-03 04:00:00 21.5 4 Sudeste 14 Sudeste 0 1016.4 -0.8 72
2019-08-03 03:00:00 21.2 5 Sudeste 14 Sudeste 0 1016.6 -0.6 69
2019-08-03 02:00:00 21.4 3 Sur 10 Sur 0 1017.1 0.1 67
2019-08-03 01:00:00 21.7 4 Sur 12 Sudeste 0 1017.2 0.4 67
2019-08-03 00:00:00 22 3 Sudeste 11 Nordeste 0 1017.2 0.9 65
2019-08-02 23:00:00 22.6 8 Este 21 Nordeste 0 1017 0.8 68
2019-08-02 22:00:00 22.8 14 Nordeste 19 Nordeste 0 1016.8 1 73
2019-08-02 21:00:00 23.4 12 Nordeste 20 Este 0 1016.3 0.5 66
2019-08-02 20:00:00 23.9 15 Nordeste 25 Nordeste 0 1016.2 0.1 66
2019-08-02 19:00:00 25.3 15 Nordeste 19 Nordeste 0 1015.8 -0.4 63
2019-08-02 18:00:00 25.9 15 Nordeste 21 Este 0 1015.8 -0.4 61
2019-08-02 17:00:00 26.4 18 Nordeste 22 Nordeste 0 1016.1 -0.6 60
2019-08-02 16:00:00 26.1 17 Nordeste 24 Nordeste 0 1016.2 -0.9 59
2019-08-02 15:00:00 25.8 20 Nordeste 26 Nordeste 0 1016.2 -1 61
2019-08-02 14:00:00 25.1 21 Nordeste 26 Nordeste 0 1016.7 -0.1 63
2019-08-02 13:00:00 25.4 12 Nordeste 21 Nordeste 0 1017.1 0.2 62
2019-08-02 12:00:00 24.4 18 Nordeste 23 Nordeste 0 1017.2 0.2 65
2019-08-02 11:00:00 25.2 13 Nordeste 22 Este 0 1016.8 0.2 63
2019-08-02 10:00:00 23.8 6 Nordeste 10 Nordeste 0 1016.9 0.7 65
2019-08-02 09:00:00 22.2 4 Sudeste 14 Sudeste 0 1017 0.7 65
2019-08-02 08:00:00 21.3 4 Sur 12 Sudeste 0 1016.6 0.4 66
2019-08-02 07:00:00 21.3 4 Sudeste 14 Sudeste 0 1016.2 -0.3 65
2019-08-02 06:00:00 21.1 5 Sur 11 Sur 0 1016.3 -0.3 65
2019-08-02 05:00:00 21 5 Sur 14 Sudeste 0 1016.2 -0.6 65
2019-08-02 04:00:00 21 8 Sur 16 Sudeste 0 1016.5 -0.5 65
2019-08-02 03:00:00 21.2 4 Sudeste 13 Sudeste 0 1016.6 -0.5 65
2019-08-02 02:00:00 21.8 5 Sudeste 13 Sudeste 0 1016.8 -0.2 63
2019-08-02 01:00:00 22 5 Sudeste 15 Sur 0 1017 0.3 64
2019-08-02 00:00:00 22.4 7 Este 27 Nordeste 0 1017.1 0.9 66
2019-08-01 23:00:00 22.6 18 Nordeste 24 Nordeste 0 1017 1.4 71
2019-08-01 22:00:00 22.7 16 Nordeste 21 Nordeste 0 1016.7 1.4 74
2019-08-01 21:00:00 23.2 15 Nordeste 21 Este 0 1016.2 1 72
2019-08-01 20:00:00 23.8 13 Nordeste 17 Nordeste 0 1015.6 0.5 67
2019-08-01 19:00:00 24.7 13 Nordeste 18 Nordeste 0 1015.3 0.4 64
2019-08-01 18:00:00 24.9 15 Nordeste 23 Este 0 1015.2 -0.2 64
2019-08-01 17:00:00 25.6 18 Nordeste 26 Nordeste 0 1015.1 -0.7 63
2019-08-01 16:00:00 27.4 10 Nordeste 16 Nordeste 0 1014.9 -1 55
2019-08-01 15:00:00 26.5 11 Nordeste 14 Nordeste 0 1015.4 -0.4 55
2019-08-01 14:00:00 25.6 12 Nordeste 15 Nordeste 0 1015.8 0.1 58
2019-08-01 13:00:00 25.7 9 Este 18 Nordeste 0 1015.9 0.5 60
2019-08-01 12:00:00 25.5 13 Nordeste 21 Nordeste 0 1015.8 0.1 61
2019-08-01 11:00:00 24.8 10 Nordeste 16 Este 0 1015.7 0.4 57
2019-08-01 10:00:00 25 3 Este 9 Nordeste 0 1015.4 0.3 57
2019-08-01 09:00:00 22.1 5 Sudeste 13 Este 0 1015.7 0.7 60
2019-08-01 08:00:00 21.2 5 Sudeste 16 Sudeste 0 1015.3 0.1 62
2019-08-01 07:00:00 20.8 8 Sur 14 Sudeste 0 1015.1 -0.6 62
2019-08-01 06:00:00 20.7 5 Sudeste 16 Sur 0 1015 -0.8 64
2019-08-01 05:00:00 20.2 6 Sur 14 Sur 0 1015.2 -0.9 65
2019-08-01 04:00:00 20.1 6 Sur 15 Sudeste 0 1015.7 -0.7 66
2019-08-01 03:00:00 20.5 3 Sur 12 Sur 0 1015.8 -0.7 65
2019-08-01 02:00:00 20.8 5 Sudeste 12 Sur 0 1016.1 0 64
2019-08-01 01:00:00 21.2 5 Sudeste 14 Sur 0 1016.4 1 63
2019-08-01 00:00:00 21.3 5 Sudeste 14 Sudeste 0 1016.5 1.5 61
2019-07-31 23:00:00 21.8 5 Sudeste 18 Este 0 1016.1 1.7 60
2019-07-31 22:00:00 22.3 9 Este 14 Este 0 1015.4 1.1 69
2019-07-31 21:00:00 22.7 8 Este 14 Nordeste 0 1015 0.5 66
2019-07-31 20:00:00 24.9 8 Nordeste 13 Nordeste 0 1014.4 -0.3 60
2019-07-31 19:00:00 24.3 10 Nordeste 14 Este 0 1014.3 -0.8 60
2019-07-31 18:00:00 24.6 10 Nordeste 17 Nordeste 0 1014.5 -0.7 59
2019-07-31 17:00:00 24.7 12 Nordeste 18 Nordeste 0 1014.7 -1 59
2019-07-31 16:00:00 24.5 16 Nordeste 24 Nordeste 0 1015.1 -1 61
2019-07-31 15:00:00 25.7 9 Este 14 Nordeste 0 1015.2 -0.7 58
2019-07-31 14:00:00 25.3 10 Nordeste 17 Nordeste 0 1015.7 -0.2 61
2019-07-31 13:00:00 24.4 13 Nordeste 23 Nordeste 0 1016.1 0.6 63
2019-07-31 12:00:00 24.5 14 Nordeste 24 Nordeste 0 1015.9 0.3 61
2019-07-31 11:00:00 23.3 18 Nordeste 22 Nordeste 0 1015.9 0.8 62
2019-07-31 10:00:00 23.6 8 Este 20 Este 0 1015.5 0.6 55
2019-07-31 09:00:00 21.9 16 Nordeste 25 Nordeste 0 1015.6 0.7 69
2019-07-31 08:00:00 21.7 5 Sudeste 16 Sur 0 1015.1 -0.1 60
2019-07-31 07:00:00 21.4 4 Sudeste 14 Sudeste 0 1014.9 -0.5 62
2019-07-31 06:00:00 21.5 3 Este 15 Este 0 1014.9 -1.2 64
2019-07-31 05:00:00 21.5 4 Sudeste 12 Sur 0 1015.2 -1.4 62
2019-07-31 04:00:00 21.3 5 Sudeste 14 Nordeste 0 1015.4 -1.7 67
2019-07-31 03:00:00 21 5 Sudeste 14 Sudeste 0 1016.1 -1.4 64
2019-07-31 02:00:00 21.6 4 Sudeste 13 Este 0 1016.6 -0.8 64
2019-07-31 01:00:00 21.7 5 Sudeste 13 Sudeste 0 1017.1 0.1 65
2019-07-31 00:00:00 21.8 4 Sudeste 17 Este 0 1017.5 1.2 67
2019-07-30 23:00:00 22.2 9 Este 19 Nordeste 0 1017.4 1.5 73
2019-07-30 22:00:00 22.2 14 Nordeste 23 Nordeste 0 1017 1.2 75
2019-07-30 21:00:00 22.9 13 Nordeste 17 Nordeste 0 1016.3 0.5 68
2019-07-30 20:00:00 23.3 11 Este 18 Este 0 1015.9 -0.1 66
2019-07-30 19:00:00 23.3 5 Este 20 Nordeste 0 1015.8 -0.4 68
2019-07-30 18:00:00 24 9 Este 17 Este 0 1015.8 -0.8 63
2019-07-30 17:00:00 24 10 Este 18 Nordeste 0 1016 -0.9 65
2019-07-30 16:00:00 24.1 13 Este 30 Nordeste 0 1016.2 -1.7 67
2019-07-30 15:00:00 24.9 20 Nordeste 30 Nordeste 0 1016.6 -2 67
2019-07-30 14:00:00 25.3 10 Nordeste 13 Nordeste 0 1016.9 -1.1 62
2019-07-30 13:00:00 23.1 3 Este 19 Este 0 1017.9 0 76
2019-07-30 12:00:00 20.9 8 Este 27 Nordeste 0 1018.6 1.1 89
2019-07-30 11:00:00 21.8 4 Sudeste 18 Nordeste 0 1018 1.5 85
2019-07-30 10:00:00 21.7 9 Este 26 Este 0 1017.9 1.7 85
2019-07-30 09:00:00 21.3 24 Este 35 Nordeste 0 1017.5 1.4 85
2019-07-30 08:00:00 22.9 4 Este 11 Este 0 1016.5 0.8 78
2019-07-30 07:00:00 22.6 8 Este 23 Nordeste 0 1016.2 0.5 78
2019-07-30 06:00:00 22.3 21 Nordeste 46 Norte 0 1016.1 0 79
2019-07-30 05:00:00 22.8 2 Sudeste 12 Norte 0 1015.7 -0.9 71
2019-07-30 04:00:00 22.5 4 Nordeste 12 Sur 0 1015.7 -1.6 68
2019-07-30 03:00:00 22.6 5 Sudeste 13 Sur 0 1016.1 -1.1 67
2019-07-30 02:00:00 22.9 0 Calma 10 Este 0 1016.6 -0.2 65
2019-07-30 01:00:00 22.8 5 Sudeste 17 Este 0 1017.3 1.1 71
2019-07-30 00:00:00 23 7 Este 21 Este 0 1017.2 1.4 77
2019-07-29 23:00:00 23.4 16 Nordeste 21 Nordeste 0 1016.8 1.6 74
2019-07-29 22:00:00 23.7 15 Nordeste 24 Nordeste 0 1016.2 1.1 71
2019-07-29 21:00:00 24.1 8 Este 23 Nordeste 0 1015.8 0.8 65
2019-07-29 20:00:00 25.5 16 Nordeste 28 Nordeste 0 1015.2 0 62
2019-07-29 19:00:00 26.6 12 Nordeste 16 Nordeste 0 1015.1 0.1 59
2019-07-29 18:00:00 26.2 12 Nordeste 22 Nordeste 0 1015 -0.1 61
2019-07-29 17:00:00 26.2 18 Nordeste 25 Nordeste 0 1015.2 -0.2 61
2019-07-29 16:00:00 26.8 19 Nordeste 27 Nordeste 0 1015 -0.7 58
2019-07-29 15:00:00 26.8 18 Nordeste 24 Nordeste 0 1015.1 -0.6 59
2019-07-29 14:00:00 27.1 14 Nordeste 18 Nordeste 0 1015.4 -0.2 55
2019-07-29 13:00:00 26.4 15 Nordeste 21 Nordeste 0 1015.7 0.4 58
2019-07-29 12:00:00 25.5 17 Este 24 Nordeste 0 1015.7 0.9 60
2019-07-29 11:00:00 24.7 15 Nordeste 18 Este 0 1015.6 0.5 62
2019-07-29 10:00:00 24.2 17 Nordeste 21 Nordeste 0 1015.3 0.8 64
2019-07-29 09:00:00 24 3 Sudeste 14 Sur 0 1014.8 0.3 60
2019-07-29 08:00:00 22.3 4 Sudeste 16 Este 0 1015.1 1 65
2019-07-29 07:00:00 22.4 8 Este 13 Este 0 1014.5 0.5 69
2019-07-29 06:00:00 22.6 8 Este 13 Nordeste 0 1014.5 0.1 74
2019-07-29 05:00:00 22.7 5 Este 11 Sudeste 0 1014.1 -0.7 74
2019-07-29 04:00:00 22.6 4 Sudeste 12 Sudeste 0 1014 -0.9 67
2019-07-29 03:00:00 22.7 3 Este 11 Nordeste 0 1014.4 -0.6 70
2019-07-29 02:00:00 22.6 6 Este 15 Nordeste 0 1014.8 0 76
2019-07-29 01:00:00 22.8 6 Este 19 Nordeste 0 1014.9 0.7 74
2019-07-29 00:00:00 23.1 10 Nordeste 17 Este 0 1015 1.1 75
2019-07-28 23:00:00 23.1 12 Nordeste 16 Nordeste 0 1014.8 1.7 77
2019-07-28 22:00:00 23.6 6 Este 15 Este 0 1014.2 1.8 70
2019-07-28 21:00:00 23.7 13 Nordeste 18 Nordeste 0 1013.9 1.5 73
2019-07-28 20:00:00 25.7 13 Nordeste 16 Nordeste 0 1013.1 0.6 68
2019-07-28 19:00:00 25.6 8 Este 13 Este 0 1012.4 0 65
2019-07-28 18:00:00 25.7 11 Nordeste 18 Este 0 1012.4 -0.6 68
2019-07-28 17:00:00 25.3 15 Este 30 Nordeste 0 1012.5 -0.5 70
2019-07-28 16:00:00 27.5 8 Nordeste 19 Nordeste 0 1012.4 -1 64
2019-07-28 15:00:00 26.1 17 Nordeste 24 Nordeste 0 1013 -0.7 68
2019-07-28 14:00:00 27.7 12 Nordeste 16 Este 0 1013 -1.1 64
2019-07-28 13:00:00 27.1 10 Nordeste 21 Nordeste 0 1013.4 -0.4 66
2019-07-28 12:00:00 26.2 9 Este 21 Nordeste 0 1013.7 -0.2 67
2019-07-28 11:00:00 24.1 16 Nordeste 21 Nordeste 0 1014.1 -0.1 74
2019-07-28 10:00:00 24.8 6 Nordeste 10 Nordeste 0 1013.8 -0.1 67
2019-07-28 09:00:00 23.3 2 Sudeste 9 Este 0 1013.9 0.3 68
2019-07-28 08:00:00 22 5 Sudeste 12 Sudeste 0 1014.2 0.3 71
2019-07-28 07:00:00 22.4 4 Sudeste 12 Sudeste 0 1013.9 -0.4 71
2019-07-28 06:00:00 22.2 6 Este 16 Nordeste 0 1013.6 -1.3 78
2019-07-28 05:00:00 22.1 6 Sudeste 14 Este 0 1013.9 -1.6 71
2019-07-28 04:00:00 21.9 4 Este 12 Sudeste 0 1014.3 -1.8 74
2019-07-28 03:00:00 21.9 2 Sudeste 22 Nordeste 0 1014.9 -1.4 75
2019-07-28 02:00:00 22.3 14 Nordeste 20 Nordeste 0 1015.5 -0.8 72
2019-07-28 01:00:00 21.6 5 Sudeste 13 Sudeste 0 1016.1 0.1 68
2019-07-28 00:00:00 22 5 Sudeste 17 Este 0 1016.3 1.1 71
2019-07-27 23:00:00 22.2 6 Este 23 Este 0 1016.3 1.3 69
2019-07-27 22:00:00 22.4 16 Nordeste 23 Nordeste 0 1016 1.2 76
2019-07-26 11:00:00 23.9 19 Nordeste 24 Nordeste 0 1016.3 0.5 75
2019-07-26 10:00:00 23.9 12 Nordeste 18 Nordeste 0 1015.9 0.1 75
2019-07-26 09:00:00 23.6 3 Este 10 Sur 0 1015.8 0.5 69
2019-07-26 08:00:00 21.3 5 Sudeste 14 Sudeste 0 1015.8 0.7 73
2019-07-26 07:00:00 21.1 4 Sur 10 Sudeste 0 1015.8 0.6 77
2019-07-26 06:00:00 21.2 4 Sudeste 12 Sudeste 0 1015.3 -0.3 76
2019-07-26 05:00:00 21.9 4 Este 23 Este 0 1015.1 -0.8 75
2019-07-26 04:00:00 22.4 7 Este 15 Nordeste 0 1015.2 -1.2 76
2019-07-26 03:00:00 22.6 6 Este 15 Este 0 1015.6 -0.9 74
2019-07-26 02:00:00 22.8 4 Sudeste 13 Sudeste 0 1015.9 -0.2 69
2019-07-26 01:00:00 22.7 3 Sudeste 12 Sudeste 0 1016.4 0.5 70
2019-07-26 00:00:00 23.1 6 Este 20 Este 0 1016.5 1.5 71